Yogi Berra — WDF2990 — position and weather

sailwx.info

Track history (hours):
 
Tides and Currents Weather Stations Pressure Air Temp Water Temp Dewpoint Dewpoint Depression Visibility Wind Speed Wind Dir Waves Ship Positions

Yogi Berra

Owner: PORT IMPERIAL FERRY, WEEHAWKEN, NJ. More information available from US FCC via Universal Licensing System and Coast Guard Vessel Documentation Center.

Last reported at 2017-Sep-21 15:30 UTC. Time now 2017-Sep-21 15:43 UTC.
Position N 40°46' W 074°01'.

Length 25 m.

Type: Passenger vessel. MMSI: 367434220.

Date/timePositionNaut miles runAvg speedWind from/ knotsBaromVisibWave heightAir tempDewpointWater temp
2017-Sep-21 15:30N 40°46' W 074°01'0 0.0
2017-Sep-21 15:00N 40°46' W 074°01'0 0.0
2017-Sep-21 14:30N 40°46' W 074°01'3 6.7
2017-Sep-21 14:00N 40°43' W 074°01'1 2.3
2017-Sep-21 13:30N 40°44' W 074°02'1 2.3
2017-Sep-21 13:00N 40°43' W 074°01'1 2.4
2017-Sep-21 12:30N 40°44' W 074°02'1 2.2
2017-Sep-21 12:00N 40°43' W 074°01'1 2.1
2017-Sep-21 11:30N 40°44' W 074°02'1 2.4
2017-Sep-21 11:00N 40°43' W 074°01'1 2.4
2017-Sep-21 10:30N 40°44' W 074°02'0 0.0
2017-Sep-20 22:56N 40°44' W 074°02'1 2.8
2017-Sep-20 22:30N 40°43' W 074°01'1 2.3
2017-Sep-20 22:00N 40°44' W 074°02'1 2.5
2017-Sep-20 21:30N 40°43' W 074°01'1 2.5
2017-Sep-20 21:00N 40°44' W 074°02'1 2.4
2017-Sep-20 20:30N 40°43' W 074°01'1 2.5
2017-Sep-20 20:01N 40°44' W 074°02'1 2.5
2017-Sep-20 19:30N 40°43' W 074°01'0 0.5
2017-Sep-20 19:00N 40°43' W 074°01'3 6.1
2017-Sep-20 18:30N 40°46' W 074°01'3 0.7
2017-Sep-20 14:00N 40°43' W 074°01'1 2.4
2017-Sep-20 13:30N 40°44' W 074°02'1 2.5
2017-Sep-20 13:01N 40°43' W 074°01'1 2.5
2017-Sep-20 12:30N 40°44' W 074°02'1 2.5
2017-Sep-20 12:00N 40°43' W 074°01'1 2.5
2017-Sep-20 11:30N 40°44' W 074°02'1 2.4
2017-Sep-20 11:00N 40°43' W 074°01'1 2.4
2017-Sep-20 10:30N 40°44' W 074°02'0 0.0
2017-Sep-19 22:59N 40°44' W 074°02'1 2.7
2017-Sep-19 22:31N 40°43' W 074°01'1 2.4
2017-Sep-19 22:00N 40°44' W 074°02'1 2.5
2017-Sep-19 21:30N 40°43' W 074°01'1 2.5
2017-Sep-19 21:00N 40°44' W 074°02'1 2.5
2017-Sep-19 20:30N 40°43' W 074°01'1 2.4
2017-Sep-19 20:00N 40°44' W 074°02'1 2.4
2017-Sep-19 19:31N 40°43' W 074°01'1 2.3
2017-Sep-19 19:00N 40°44' W 074°01'0 0.2
2017-Sep-19 18:30N 40°44' W 074°02'0 0.0
2017-Sep-19 14:09N 40°44' W 074°02'1 7.3
2017-Sep-19 14:00N 40°43' W 074°01'1 2.2
2017-Sep-19 13:31N 40°44' W 074°02'1 2.5
2017-Sep-19 13:00N 40°43' W 074°01'1 2.5
2017-Sep-19 12:30N 40°44' W 074°02'1 2.5
2017-Sep-19 12:00N 40°43' W 074°01'1 2.5
2017-Sep-19 11:30N 40°44' W 074°02'1 2.5
2017-Sep-19 11:01N 40°43' W 074°01'1 2.5
2017-Sep-19 10:30N 40°44' W 074°02'0 0.0
2017-Sep-18 22:58N 40°44' W 074°02'1 2.7
2017-Sep-18 22:31N 40°43' W 074°01'1 2.4
2017-Sep-18 22:00N 40°44' W 074°02'1 2.4
2017-Sep-18 21:30N 40°43' W 074°01'1 2.4
2017-Sep-18 21:01N 40°44' W 074°02'1 2.4
2017-Sep-18 20:30N 40°43' W 074°01'1 2.3
2017-Sep-18 20:00N 40°44' W 074°01'1 1.9
2017-Sep-18 19:31N 40°43' W 074°01'1 2.2
2017-Sep-18 19:00N 40°44' W 074°02'2 4.5
2017-Sep-18 18:30N 40°46' W 074°01'0 0.0
2017-Sep-18 14:24N 40°46' W 074°01'3 8.5
2017-Sep-18 14:01N 40°43' W 074°01'1 2.4
2017-Sep-18 13:30N 40°44' W 074°02'1 2.4
2017-Sep-18 13:00N 40°43' W 074°01'1 2.4
2017-Sep-18 12:30N 40°44' W 074°02'1 2.4
2017-Sep-18 12:00N 40°43' W 074°01'1 2.5
2017-Sep-18 11:30N 40°44' W 074°02'1 2.5
2017-Sep-18 11:00N 40°43' W 074°01'1 2.5
2017-Sep-18 10:30N 40°44' W 074°02'2 4.5
2017-Sep-18 10:00N 40°46' W 074°01'0 0.0
2017-Sep-18 09:30N 40°46' W 074°01'0 0.0
2017-Sep-18 09:00N 40°46' W 074°01'0 0.0
2017-Sep-18 08:30N 40°46' W 074°01'0 0.0
2017-Sep-18 08:00N 40°46' W 074°01'0 0.0
2017-Sep-18 07:30N 40°46' W 074°01'0 0.0
2017-Sep-18 06:59N 40°46' W 074°01'0 0.0
2017-Sep-18 06:30N 40°46' W 074°01'0 0.0
2017-Sep-18 06:00N 40°46' W 074°01'0 0.0
2017-Sep-18 05:30N 40°46' W 074°01'0 0.0
2017-Sep-18 05:00N 40°46' W 074°01'0 0.0
2017-Sep-18 04:30N 40°46' W 074°01'0 0.0
2017-Sep-18 04:00N 40°46' W 074°01'0 0.0
2017-Sep-18 03:30N 40°46' W 074°01'0 0.0
2017-Sep-18 03:00N 40°46' W 074°01'0 0.0
2017-Sep-18 02:30N 40°46' W 074°01'0 0.0
2017-Sep-18 02:00N 40°46' W 074°01'0 0.0
2017-Sep-18 01:30N 40°46' W 074°01'0 0.0
2017-Sep-18 01:00N 40°46' W 074°01'0 0.0
2017-Sep-16 19:35N 40°46' W 074°01'0 0.2
2017-Sep-16 19:30N 40°46' W 074°01'0 0.0
2017-Sep-16 19:00N 40°46' W 074°01'0 0.0
2017-Sep-16 18:30N 40°46' W 074°01'0 0.0
2017-Sep-16 18:00N 40°46' W 074°01'0 0.0
2017-Sep-16 17:30N 40°46' W 074°01'0 0.0
2017-Sep-16 17:00N 40°46' W 074°01'0 0.0
2017-Sep-16 16:30N 40°46' W 074°01'0 0.0
2017-Sep-16 16:00N 40°46' W 074°01'0 0.0
2017-Sep-16 15:30N 40°46' W 074°01'0 0.0
2017-Sep-16 15:00N 40°46' W 074°01'0 0.0
2017-Sep-16 14:30N 40°46' W 074°01'0 0.0
2017-Sep-16 14:00N 40°46' W 074°01'0 0.0
2017-Sep-16 13:30N 40°46' W 074°01'0 0.0
2017-Sep-16 13:00N 40°46' W 074°01'0 0.0
2017-Sep-16 12:30N 40°46' W 074°01'2 4.5
2017-Sep-16 12:01N 40°44' W 074°02'0 0.0
2017-Sep-15 22:57N 40°44' W 074°02'1 2.9
2017-Sep-15 22:30N 40°43' W 074°01'1 2.4
2017-Sep-15 22:00N 40°44' W 074°02'1 2.3
2017-Sep-15 21:31N 40°43' W 074°01'1 2.4
2017-Sep-15 21:00N 40°44' W 074°02'1 2.5
2017-Sep-15 20:30N 40°43' W 074°01'1 2.5
2017-Sep-15 20:00N 40°44' W 074°02'1 2.5
2017-Sep-15 19:30N 40°43' W 074°01'1 2.3
2017-Sep-15 19:00N 40°44' W 074°01'3 5.1
2017-Sep-15 18:30N 40°47' W 074°01'0 0.0
2017-Sep-15 14:20N 40°47' W 074°01'411.2
2017-Sep-15 14:00N 40°43' W 074°01'1 2.4
2017-Sep-15 13:30N 40°44' W 074°02'1 2.5
2017-Sep-15 13:01N 40°43' W 074°01'1 2.5
2017-Sep-15 12:30N 40°44' W 074°02'1 2.5
2017-Sep-15 12:00N 40°43' W 074°01'1 2.5
2017-Sep-15 11:30N 40°44' W 074°02'1 2.4
2017-Sep-15 11:00N 40°43' W 074°01'1 2.4
2017-Sep-15 10:30N 40°44' W 074°02'0 0.0
2017-Sep-14 22:56N 40°44' W 074°02'1 2.9
2017-Sep-14 22:30N 40°43' W 074°01'1 2.4
2017-Sep-14 22:00N 40°44' W 074°02'1 2.5
2017-Sep-14 21:30N 40°43' W 074°01'1 2.5
2017-Sep-14 21:00N 40°44' W 074°02'1 2.4
2017-Sep-14 20:30N 40°43' W 074°01'1 2.4
2017-Sep-14 20:00N 40°44' W 074°02'1 2.4
2017-Sep-14 19:31N 40°43' W 074°01'1 2.0
2017-Sep-14 19:00N 40°44' W 074°01'2 4.7
2017-Sep-14 18:31N 40°46' W 074°01'0 0.0
2017-Sep-14 14:17N 40°46' W 074°01'312.4
2017-Sep-14 14:01N 40°43' W 074°01'1 2.3
2017-Sep-14 13:30N 40°44' W 074°02'1 2.3
2017-Sep-14 13:00N 40°43' W 074°01'1 2.3
2017-Sep-14 12:31N 40°44' W 074°02'1 2.4
2017-Sep-14 12:00N 40°43' W 074°01'1 2.4
2017-Sep-14 11:30N 40°44' W 074°02'1 2.4
2017-Sep-14 11:00N 40°43' W 074°01'1 2.4
2017-Sep-14 10:30N 40°44' W 074°02'0 0.1
2017-Sep-14 10:00N 40°44' W 074°02'0 0.0
2017-Sep-13 23:00N 40°44' W 074°02'1 2.6
2017-Sep-13 22:30N 40°43' W 074°01'1 2.5
2017-Sep-13 22:00N 40°44' W 074°02'1 2.4
2017-Sep-13 21:30N 40°43' W 074°01'1 2.5
2017-Sep-13 21:00N 40°44' W 074°02'1 2.5
2017-Sep-13 20:31N 40°43' W 074°01'1 2.5
2017-Sep-13 20:00N 40°44' W 074°02'1 2.5
2017-Sep-13 19:31N 40°43' W 074°01'2 3.2
2017-Sep-13 19:00N 40°45' W 074°01'2 0.3
2017-Sep-13 14:11N 40°46' W 074°01'317.8
2017-Sep-13 14:00N 40°43' W 074°01'1 2.5
2017-Sep-13 13:30N 40°44' W 074°02'1 2.4
2017-Sep-13 13:00N 40°43' W 074°01'1 2.4
2017-Sep-13 12:30N 40°44' W 074°02'1 2.5
2017-Sep-13 12:00N 40°43' W 074°01'1 2.5
2017-Sep-13 11:30N 40°44' W 074°02'1 2.5
2017-Sep-13 11:00N 40°43' W 074°01'1 2.4
2017-Sep-13 10:30N 40°44' W 074°02'0 0.0
2017-Sep-12 22:57N 40°44' W 074°02'1 2.9
2017-Sep-12 22:30N 40°43' W 074°01'1 2.5
2017-Sep-12 22:00N 40°44' W 074°02'1 2.5
2017-Sep-12 21:30N 40°43' W 074°01'1 2.4
2017-Sep-12 21:00N 40°44' W 074°02'1 2.4
2017-Sep-12 20:30N 40°43' W 074°01'1 2.5
2017-Sep-12 20:01N 40°44' W 074°02'1 2.5
2017-Sep-12 19:30N 40°43' W 074°01'1 2.5
2017-Sep-12 19:01N 40°44' W 074°02'0 0.0
2017-Sep-12 15:21N 40°44' W 074°02'2 6.3
2017-Sep-12 15:00N 40°46' W 074°01'0 0.0
2017-Sep-12 14:30N 40°46' W 074°01'3 6.7
2017-Sep-12 14:01N 40°43' W 074°01'1 2.4
2017-Sep-12 13:30N 40°44' W 074°02'1 2.5
2017-Sep-12 13:00N 40°43' W 074°01'1 2.5
2017-Sep-12 12:30N 40°44' W 074°02'1 2.5
2017-Sep-12 12:00N 40°43' W 074°01'1 2.5
2017-Sep-12 11:30N 40°44' W 074°02'1 2.5
2017-Sep-12 11:00N 40°43' W 074°01'1 2.4
2017-Sep-12 10:30N 40°44' W 074°02'0 0.1
2017-Sep-12 10:01N 40°44' W 074°02'0 0.0
2017-Sep-11 22:57N 40°44' W 074°02'1 2.8
2017-Sep-11 22:30N 40°43' W 074°01'1 2.5
2017-Sep-11 22:00N 40°44' W 074°02'1 2.4
2017-Sep-11 21:30N 40°43' W 074°01'1 2.3
2017-Sep-11 21:00N 40°44' W 074°02'1 2.4
2017-Sep-11 20:30N 40°43' W 074°01'1 2.4
2017-Sep-11 20:00N 40°44' W 074°02'1 2.1
2017-Sep-11 19:30N 40°43' W 074°01'1 2.2
2017-Sep-11 19:00N 40°44' W 074°02'  
Track history (hours):
 
Tides and Currents Weather Stations Pressure Air Temp Water Temp Dewpoint Dewpoint Depression Visibility Wind Speed Wind Dir Waves Ship Positions

Yogi Berra

Owner: PORT IMPERIAL FERRY, WEEHAWKEN, NJ. More information available from US FCC via Universal Licensing System and Coast Guard Vessel Documentation Center.

Last reported at 2017-Sep-21 15:30 UTC. Time now 2017-Sep-21 15:43 UTC.
Position N 40°46' W 074°01'.

Length 25 m.

Type: Passenger vessel. MMSI: 367434220.

Date/timePositionNaut miles runAvg speedWind from/ knotsBaromVisibWave heightAir tempDewpointWater temp
2017-Sep-21 15:30N 40°46' W 074°01'0 0.0
2017-Sep-21 15:00N 40°46' W 074°01'0 0.0
2017-Sep-21 14:30N 40°46' W 074°01'3 6.7
2017-Sep-21 14:00N 40°43' W 074°01'1 2.3
2017-Sep-21 13:30N 40°44' W 074°02'1 2.3
2017-Sep-21 13:00N 40°43' W 074°01'1 2.4
2017-Sep-21 12:30N 40°44' W 074°02'1 2.2
2017-Sep-21 12:00N 40°43' W 074°01'1 2.1
2017-Sep-21 11:30N 40°44' W 074°02'1 2.4
2017-Sep-21 11:00N 40°43' W 074°01'1 2.4
2017-Sep-21 10:30N 40°44' W 074°02'0 0.0
2017-Sep-20 22:56N 40°44' W 074°02'1 2.8
2017-Sep-20 22:30N 40°43' W 074°01'1 2.3
2017-Sep-20 22:00N 40°44' W 074°02'1 2.5
2017-Sep-20 21:30N 40°43' W 074°01'1 2.5
2017-Sep-20 21:00N 40°44' W 074°02'1 2.4
2017-Sep-20 20:30N 40°43' W 074°01'1 2.5
2017-Sep-20 20:01N 40°44' W 074°02'1 2.5
2017-Sep-20 19:30N 40°43' W 074°01'0 0.5
2017-Sep-20 19:00N 40°43' W 074°01'3 6.1
2017-Sep-20 18:30N 40°46' W 074°01'3 0.7
2017-Sep-20 14:00N 40°43' W 074°01'1 2.4
2017-Sep-20 13:30N 40°44' W 074°02'1 2.5
2017-Sep-20 13:01N 40°43' W 074°01'1 2.5
2017-Sep-20 12:30N 40°44' W 074°02'1 2.5
2017-Sep-20 12:00N 40°43' W 074°01'1 2.5
2017-Sep-20 11:30N 40°44' W 074°02'1 2.4
2017-Sep-20 11:00N 40°43' W 074°01'1 2.4
2017-Sep-20 10:30N 40°44' W 074°02'0 0.0
2017-Sep-19 22:59N 40°44' W 074°02'1 2.7
2017-Sep-19 22:31N 40°43' W 074°01'1 2.4
2017-Sep-19 22:00N 40°44' W 074°02'1 2.5
2017-Sep-19 21:30N 40°43' W 074°01'1 2.5
2017-Sep-19 21:00N 40°44' W 074°02'1 2.5
2017-Sep-19 20:30N 40°43' W 074°01'1 2.4
2017-Sep-19 20:00N 40°44' W 074°02'1 2.4
2017-Sep-19 19:31N 40°43' W 074°01'1 2.3
2017-Sep-19 19:00N 40°44' W 074°01'0 0.2
2017-Sep-19 18:30N 40°44' W 074°02'0 0.0
2017-Sep-19 14:09N 40°44' W 074°02'1 7.3
2017-Sep-19 14:00N 40°43' W 074°01'1 2.2
2017-Sep-19 13:31N 40°44' W 074°02'1 2.5
2017-Sep-19 13:00N 40°43' W 074°01'1 2.5
2017-Sep-19 12:30N 40°44' W 074°02'1 2.5
2017-Sep-19 12:00N 40°43' W 074°01'1 2.5
2017-Sep-19 11:30N 40°44' W 074°02'1 2.5
2017-Sep-19 11:01N 40°43' W 074°01'1 2.5
2017-Sep-19 10:30N 40°44' W 074°02'0 0.0
2017-Sep-18 22:58N 40°44' W 074°02'1 2.7
2017-Sep-18 22:31N 40°43' W 074°01'1 2.4
2017-Sep-18 22:00N 40°44' W 074°02'1 2.4
2017-Sep-18 21:30N 40°43' W 074°01'1 2.4
2017-Sep-18 21:01N 40°44' W 074°02'1 2.4
2017-Sep-18 20:30N 40°43' W 074°01'1 2.3
2017-Sep-18 20:00N 40°44' W 074°01'1 1.9
2017-Sep-18 19:31N 40°43' W 074°01'1 2.2
2017-Sep-18 19:00N 40°44' W 074°02'2 4.5
2017-Sep-18 18:30N 40°46' W 074°01'0 0.0
2017-Sep-18 14:24N 40°46' W 074°01'3 8.5
2017-Sep-18 14:01N 40°43' W 074°01'1 2.4
2017-Sep-18 13:30N 40°44' W 074°02'1 2.4
2017-Sep-18 13:00N 40°43' W 074°01'1 2.4
2017-Sep-18 12:30N 40°44' W 074°02'1 2.4
2017-Sep-18 12:00N 40°43' W 074°01'1 2.5
2017-Sep-18 11:30N 40°44' W 074°02'1 2.5
2017-Sep-18 11:00N 40°43' W 074°01'1 2.5
2017-Sep-18 10:30N 40°44' W 074°02'2 4.5
2017-Sep-18 10:00N 40°46' W 074°01'0 0.0
2017-Sep-18 09:30N 40°46' W 074°01'0 0.0
2017-Sep-18 09:00N 40°46' W 074°01'0 0.0
2017-Sep-18 08:30N 40°46' W 074°01'0 0.0
2017-Sep-18 08:00N 40°46' W 074°01'0 0.0
2017-Sep-18 07:30N 40°46' W 074°01'0 0.0
2017-Sep-18 06:59N 40°46' W 074°01'0 0.0
2017-Sep-18 06:30N 40°46' W 074°01'0 0.0
2017-Sep-18 06:00N 40°46' W 074°01'0 0.0
2017-Sep-18 05:30N 40°46' W 074°01'0 0.0
2017-Sep-18 05:00N 40°46' W 074°01'0 0.0
2017-Sep-18 04:30N 40°46' W 074°01'0 0.0
2017-Sep-18 04:00N 40°46' W 074°01'0 0.0
2017-Sep-18 03:30N 40°46' W 074°01'0 0.0
2017-Sep-18 03:00N 40°46' W 074°01'0 0.0
2017-Sep-18 02:30N 40°46' W 074°01'0 0.0
2017-Sep-18 02:00N 40°46' W 074°01'0 0.0
2017-Sep-18 01:30N 40°46' W 074°01'0 0.0
2017-Sep-18 01:00N 40°46' W 074°01'0 0.0
2017-Sep-16 19:35N 40°46' W 074°01'0 0.2
2017-Sep-16 19:30N 40°46' W 074°01'0 0.0
2017-Sep-16 19:00N 40°46' W 074°01'0 0.0
2017-Sep-16 18:30N 40°46' W 074°01'0 0.0
2017-Sep-16 18:00N 40°46' W 074°01'0 0.0
2017-Sep-16 17:30N 40°46' W 074°01'0 0.0
2017-Sep-16 17:00N 40°46' W 074°01'0 0.0
2017-Sep-16 16:30N 40°46' W 074°01'0 0.0
2017-Sep-16 16:00N 40°46' W 074°01'0 0.0
2017-Sep-16 15:30N 40°46' W 074°01'0 0.0
2017-Sep-16 15:00N 40°46' W 074°01'0 0.0
2017-Sep-16 14:30N 40°46' W 074°01'0 0.0
2017-Sep-16 14:00N 40°46' W 074°01'0 0.0
2017-Sep-16 13:30N 40°46' W 074°01'0 0.0
2017-Sep-16 13:00N 40°46' W 074°01'0 0.0
2017-Sep-16 12:30N 40°46' W 074°01'2 4.5
2017-Sep-16 12:01N 40°44' W 074°02'0 0.0
2017-Sep-15 22:57N 40°44' W 074°02'1 2.9
2017-Sep-15 22:30N 40°43' W 074°01'1 2.4
2017-Sep-15 22:00N 40°44' W 074°02'1 2.3
2017-Sep-15 21:31N 40°43' W 074°01'1 2.4
2017-Sep-15 21:00N 40°44' W 074°02'1 2.5
2017-Sep-15 20:30N 40°43' W 074°01'1 2.5
2017-Sep-15 20:00N 40°44' W 074°02'1 2.5
2017-Sep-15 19:30N 40°43' W 074°01'1 2.3
2017-Sep-15 19:00N 40°44' W 074°01'3 5.1
2017-Sep-15 18:30N 40°47' W 074°01'0 0.0
2017-Sep-15 14:20N 40°47' W 074°01'411.2
2017-Sep-15 14:00N 40°43' W 074°01'1 2.4
2017-Sep-15 13:30N 40°44' W 074°02'1 2.5
2017-Sep-15 13:01N 40°43' W 074°01'1 2.5
2017-Sep-15 12:30N 40°44' W 074°02'1 2.5
2017-Sep-15 12:00N 40°43' W 074°01'1 2.5
2017-Sep-15 11:30N 40°44' W 074°02'1 2.4
2017-Sep-15 11:00N 40°43' W 074°01'1 2.4
2017-Sep-15 10:30N 40°44' W 074°02'0 0.0
2017-Sep-14 22:56N 40°44' W 074°02'1 2.9
2017-Sep-14 22:30N 40°43' W 074°01'1 2.4
2017-Sep-14 22:00N 40°44' W 074°02'1 2.5
2017-Sep-14 21:30N 40°43' W 074°01'1 2.5
2017-Sep-14 21:00N 40°44' W 074°02'1 2.4
2017-Sep-14 20:30N 40°43' W 074°01'1 2.4
2017-Sep-14 20:00N 40°44' W 074°02'1 2.4
2017-Sep-14 19:31N 40°43' W 074°01'1 2.0
2017-Sep-14 19:00N 40°44' W 074°01'2 4.7
2017-Sep-14 18:31N 40°46' W 074°01'0 0.0
2017-Sep-14 14:17N 40°46' W 074°01'312.4
2017-Sep-14 14:01N 40°43' W 074°01'1 2.3
2017-Sep-14 13:30N 40°44' W 074°02'1 2.3
2017-Sep-14 13:00N 40°43' W 074°01'1 2.3
2017-Sep-14 12:31N 40°44' W 074°02'1 2.4
2017-Sep-14 12:00N 40°43' W 074°01'1 2.4
2017-Sep-14 11:30N 40°44' W 074°02'1 2.4
2017-Sep-14 11:00N 40°43' W 074°01'1 2.4
2017-Sep-14 10:30N 40°44' W 074°02'0 0.1
2017-Sep-14 10:00N 40°44' W 074°02'0 0.0
2017-Sep-13 23:00N 40°44' W 074°02'1 2.6
2017-Sep-13 22:30N 40°43' W 074°01'1 2.5
2017-Sep-13 22:00N 40°44' W 074°02'1 2.4
2017-Sep-13 21:30N 40°43' W 074°01'1 2.5
2017-Sep-13 21:00N 40°44' W 074°02'1 2.5
2017-Sep-13 20:31N 40°43' W 074°01'1 2.5
2017-Sep-13 20:00N 40°44' W 074°02'1 2.5
2017-Sep-13 19:31N 40°43' W 074°01'2 3.2
2017-Sep-13 19:00N 40°45' W 074°01'2 0.3
2017-Sep-13 14:11N 40°46' W 074°01'317.8
2017-Sep-13 14:00N 40°43' W 074°01'1 2.5
2017-Sep-13 13:30N 40°44' W 074°02'1 2.4
2017-Sep-13 13:00N 40°43' W 074°01'1 2.4
2017-Sep-13 12:30N 40°44' W 074°02'1 2.5
2017-Sep-13 12:00N 40°43' W 074°01'1 2.5
2017-Sep-13 11:30N 40°44' W 074°02'1 2.5
2017-Sep-13 11:00N 40°43' W 074°01'1 2.4
2017-Sep-13 10:30N 40°44' W 074°02'0 0.0
2017-Sep-12 22:57N 40°44' W 074°02'1 2.9
2017-Sep-12 22:30N 40°43' W 074°01'1 2.5
2017-Sep-12 22:00N 40°44' W 074°02'1 2.5
2017-Sep-12 21:30N 40°43' W 074°01'1 2.4
2017-Sep-12 21:00N 40°44' W 074°02'1 2.4
2017-Sep-12 20:30N 40°43' W 074°01'1 2.5
2017-Sep-12 20:01N 40°44' W 074°02'1 2.5
2017-Sep-12 19:30N 40°43' W 074°01'1 2.5
2017-Sep-12 19:01N 40°44' W 074°02'0 0.0
2017-Sep-12 15:21N 40°44' W 074°02'2 6.3
2017-Sep-12 15:00N 40°46' W 074°01'0 0.0
2017-Sep-12 14:30N 40°46' W 074°01'3 6.7
2017-Sep-12 14:01N 40°43' W 074°01'1 2.4
2017-Sep-12 13:30N 40°44' W 074°02'1 2.5
2017-Sep-12 13:00N 40°43' W 074°01'1 2.5
2017-Sep-12 12:30N 40°44' W 074°02'1 2.5
2017-Sep-12 12:00N 40°43' W 074°01'1 2.5
2017-Sep-12 11:30N 40°44' W 074°02'1 2.5
2017-Sep-12 11:00N 40°43' W 074°01'1 2.4
2017-Sep-12 10:30N 40°44' W 074°02'0 0.1
2017-Sep-12 10:01N 40°44' W 074°02'0 0.0
2017-Sep-11 22:57N 40°44' W 074°02'1 2.8
2017-Sep-11 22:30N 40°43' W 074°01'1 2.5
2017-Sep-11 22:00N 40°44' W 074°02'1 2.4
2017-Sep-11 21:30N 40°43' W 074°01'1 2.3
2017-Sep-11 21:00N 40°44' W 074°02'1 2.4
2017-Sep-11 20:30N 40°43' W 074°01'1 2.4
2017-Sep-11 20:00N 40°44' W 074°02'1 2.1
2017-Sep-11 19:30N 40°43' W 074°01'1 2.2
2017-Sep-11 19:00N 40°44' W 074°02'  

Dump ship's entire track history